Decoded Metar for KLZU (LAWRENCEVILLE in GA, USA) (IATA:LZU) | Meteo·Mobile Aviation Weather
aviador You're here:

KLZU Decoded Metar

LAWRENCEVILLE in GA, USA
Report Time2018-12-17 13:56:00
UTC Time2018-12-17 15:01:06
Flight Rules vfr VFR
Wind260° at 08 kt
W.Decomp.*RWY 25: 7.7 kt HW 2.1 kt RCW
W.Rank260° ranks 7
Current wind is above 260° avg. (7.7)
Visibility9999 m
Phenomena:N/A
Clouds:N/A
Expected CloudBase > 800 ft AGL from Temp-Dew spread
CeilingNone
Temp08°C (ISA -5)
Dew Point06°C (87% RH)
AAT4.2°C
QNH1021 hPa
Density Alt335 ft
Elevation1,060 ft
Report Wrong Elevation
Raw Report
METAR KLZU 171356Z 26008KT 10SM CLR 08/06 A3015 RMK AO2 SLP222 T00830056=

Extra information for KLZU:More info

Metar Taf Metar & Taf Last 4 Metars F.Rules Stats Wind Profile Meteogram Temp Stats Airport Information Weather charts Add Link Nearby VenuesMetar ALERT Operation Metar Decoded Social comments

AIRNAV info for KLZU